Clarksburg, New Jersey
Current Conditions -  °F | °C
As of 11:58 AM on Thursday 23 Oct 2014 (Local Time) from KWRI Reporting Station
Light Rain Light Rain  
Wind Chill: 52°   Ceiling: 1700
Heat Index: 52°   Visibility: 10mi
Dew Point: 48°   Wind: 16mph
Humidity: 88%   Direction: 310°NW
Pressure: 29.72"   Gusts: 24mph
Location:  40.19°N, 74.44°W
Report Text: KWRI 231558Z AUTO 31014G21KT 10SM -RA BKN017 OVC025 11/09 A2972 RMK AO2 RAB1556 SLP068 P0000
Loading
Personal Weather Stations






























Interactive Weather Map
Tropical Storm Tracking
New forecast layout! Learn more

10-Day Weather Forecast

Advertisements
Track Severe Weather on mobile